This is the latest recevied weather packets stored in our database for station/object KM5VY. If no packets are shown the sender has not sent any weather packets the latest 10 day(s).
| Time | Temp. | Humidity | Pressure | Rain* | Wind** | Luminosity | Snow |
|---|---|---|---|---|---|---|---|
| 1777853672 | 17.78° C | 32% | 1017.3 hPa | 0 mm | - | - | - |
| 1777853071 | 17.78° C | 31% | 1017.3 hPa | 0 mm | - | - | - |
| 1777852471 | 18.33° C | 30% | 1017.3 hPa | 0 mm | - | - | - |
| 1777851870 | 18.33° C | 29% | 1017.3 hPa | 0 mm | - | - | - |
| 1777851268 | 18.33° C | 28% | 1017.3 hPa | 0 mm | - | - | - |
| 1777850667 | 18.89° C | 28% | 1017.6 hPa | 0 mm | - | - | - |
| 1777850066 | 18.89° C | 27% | 1017.6 hPa | 0 mm | - | - | - |
| 1777849466 | 18.89° C | 27% | 1017.6 hPa | 0 mm | - | - | - |
| 1777848865 | 18.89° C | 27% | 1017.9 hPa | 0 mm | - | - | - |
| 1777848265 | 18.89° C | 27% | 1017.9 hPa | 0 mm | - | - | - |
| 1777847663 | 19.44° C | 27% | 1017.9 hPa | 0 mm | - | - | - |
| 1777847062 | 19.44° C | 27% | 1018.3 hPa | 0 mm | - | - | - |
| 1777846461 | 19.44° C | 27% | 1018.3 hPa | 0 mm | - | - | - |
| 1777846006 | 18.89° C | 32% | 1020.3 hPa | 0 mm | - | - | - |
| 1777845860 | 19.44° C | 26% | 1018.3 hPa | 0 mm | - | - | - |
| 1777845259 | 19.44° C | 27% | 1018.3 hPa | 0 mm | - | - | - |
| 1777844657 | 20° C | 26% | 1018.6 hPa | 0 mm | - | - | - |
| 1777843456 | 20° C | 27% | 1019 hPa | 0 mm | - | - | - |
| 1777842854 | 20° C | 28% | 1019.3 hPa | 0 mm | - | - | - |
| 1777842253 | 20° C | 28% | 1019.6 hPa | 0 mm | - | - | - |
| 1777841652 | 20° C | 30% | 1019.6 hPa | 0 mm | - | - | - |
| 1777841051 | 19.44° C | 31% | 1020 hPa | 0 mm | - | - | - |
| 1777840450 | 18.89° C | 32% | 1020.3 hPa | 0 mm | - | - | - |
| 1777839850 | 18.89° C | 33% | 1020.3 hPa | 0 mm | - | - | - |
| 1777839596 | 18.33° C | 33% | 1020.7 hPa | 0 mm | - | - | - |
* Rain latest hour (hover to see other rain measurements)
** Current wind speed in m/s (hover to see current wind gust speed)